Time;durP1;ratioP1;P1;durP2;ratioP2;P2;SDS_P1;SDS_P2;PMS_P1;PMS_P2;Temp;Humidity;BMP_temperature;BMP_pressure;BME280_temperature;BME280_humidity;BME280_pressure;Samples;Min_cycle;Max_cycle;Signal;HPM_P1;HPM_P2
2022/07/23 00:00:52;;;;;;;8.38;4.88;;;13.80;99.90;;;;;;5046385;28;20045;-76
2022/07/23 00:03:18;;;;;;;5.68;3.85;;;13.80;99.90;;;;;;5044531;28;20439;-76
2022/07/23 00:05:44;;;;;;;4.82;4.35;;;13.70;99.90;;;;;;5046980;28;20450;-76
2022/07/23 00:08:09;;;;;;;6.55;3.88;;;13.70;99.90;;;;;;5045542;28;20041;-76
2022/07/23 00:10:35;;;;;;;8.15;4.43;;;13.70;99.90;;;;;;5044438;28;20045;-76
2022/07/23 00:13:02;;;;;;;6.32;4.78;;;13.60;99.90;;;;;;5044247;28;20558;-77
2022/07/23 00:15:28;;;;;;;5.18;4.05;;;13.70;99.90;;;;;;5046595;28;20372;-76
2022/07/23 00:17:54;;;;;;;7.15;3.92;;;13.60;99.90;;;;;;5046229;28;20051;-76
2022/07/23 00:20:19;;;;;;;6.13;4.60;;;13.60;99.90;;;;;;5046815;28;20049;-76
2022/07/23 00:22:50;;;;;;;7.82;4.10;;;13.60;99.90;;;;;;5048382;28;20045;-76
2022/07/23 00:25:16;;;;;;;6.93;4.57;;;13.60;99.90;;;;;;5043733;28;20495;-76
2022/07/23 00:27:42;;;;;;;8.77;4.05;;;13.60;99.90;;;;;;5046551;28;20033;-76
2022/07/23 00:30:08;;;;;;;14.02;4.85;;;13.50;99.90;;;;;;5045312;28;20110;-76
2022/07/23 00:32:48;;;;;;;7.75;4.20;;;13.60;99.90;;;;;;5046356;28;20518;-75
2022/07/23 00:35:15;;;;;;;5.82;4.28;;;13.60;99.90;;;;;;5045182;28;20064;-76
2022/07/23 00:37:41;;;;;;;6.50;4.38;;;13.60;99.90;;;;;;5046840;28;20067;-76
2022/07/23 00:40:08;;;;;;;7.65;3.83;;;13.50;99.90;;;;;;5043785;28;20073;-76
2022/07/23 00:42:33;;;;;;;6.82;4.65;;;13.50;99.90;;;;;;5043714;28;20045;-76
2022/07/23 00:44:59;;;;;;;7.53;4.25;;;13.60;99.90;;;;;;5045303;28;20048;-76
2022/07/23 00:47:25;;;;;;;6.90;4.10;;;13.40;99.90;;;;;;5028697;28;20420;-76
2022/07/23 00:49:51;;;;;;;10.88;4.15;;;13.40;99.90;;;;;;5044586;28;20081;-76
2022/07/23 00:52:17;;;;;;;5.40;4.30;;;13.40;99.90;;;;;;5046360;28;20087;-76
2022/07/23 00:54:43;;;;;;;4.13;3.65;;;13.30;99.90;;;;;;5044039;28;20052;-76
2022/07/23 00:57:09;;;;;;;4.15;3.45;;;13.40;99.90;;;;;;5045616;28;20049;-76
2022/07/23 00:59:34;;;;;;;8.07;4.22;;;13.20;99.90;;;;;;5047384;28;20045;-76
2022/07/23 01:02:00;;;;;;;5.25;3.80;;;13.20;99.90;;;;;;5046257;28;20060;-76
2022/07/23 01:04:26;;;;;;;5.05;4.25;;;13.20;99.90;;;;;;5047745;28;20490;-76
2022/07/23 01:06:52;;;;;;;6.57;3.22;;;13.10;99.90;;;;;;5046696;28;20484;-76
2022/07/23 01:09:18;;;;;;;3.90;3.45;;;13.30;99.90;;;;;;5042262;28;20041;-76
2022/07/23 01:11:44;;;;;;;4.65;3.97;;;13.20;99.90;;;;;;5046840;28;20045;-76
2022/07/23 01:14:09;;;;;;;3.90;3.35;;;13.20;99.90;;;;;;5042609;28;20056;-76
2022/07/23 01:16:35;;;;;;;4.18;3.70;;;13.20;99.90;;;;;;5043580;28;20045;-78
2022/07/23 01:19:01;;;;;;;5.07;4.57;;;13.10;99.90;;;;;;5046797;28;20037;-76
2022/07/23 01:21:26;;;;;;;6.47;5.38;;;13.10;99.90;;;;;;5041768;28;20060;-76
2022/07/23 01:23:52;;;;;;;7.32;5.05;;;13.10;99.90;;;;;;5044709;28;20041;-76
2022/07/23 01:26:18;;;;;;;6.75;6.05;;;13.10;99.90;;;;;;5046327;28;20551;-76
2022/07/23 01:28:44;;;;;;;8.35;6.32;;;13.10;99.90;;;;;;5046662;28;20044;-76
2022/07/23 01:31:09;;;;;;;8.82;5.28;;;13.00;99.90;;;;;;5044298;28;20131;-76
2022/07/23 01:33:35;;;;;;;9.25;5.78;;;12.90;99.90;;;;;;5054027;28;20044;-77
2022/07/23 01:36:00;;;;;;;8.20;5.63;;;13.00;99.90;;;;;;5047010;28;20474;-76
2022/07/23 01:38:26;;;;;;;7.88;4.93;;;12.80;99.90;;;;;;5049096;28;20120;-76
2022/07/23 01:40:52;;;;;;;6.35;4.72;;;12.80;99.90;;;;;;5051591;28;20454;-77
2022/07/23 01:43:17;;;;;;;7.90;5.30;;;12.80;99.90;;;;;;5055739;28;20037;-79
2022/07/23 01:45:44;;;;;;;8.05;5.50;;;12.80;99.90;;;;;;5054134;28;20087;-77
2022/07/23 01:48:10;;;;;;;6.93;5.18;;;12.80;99.90;;;;;;5056123;28;20040;-75
2022/07/23 01:50:35;;;;;;;8.80;5.45;;;12.70;99.90;;;;;;5049673;28;20404;-78
2022/07/23 01:53:01;;;;;;;6.03;4.80;;;12.70;99.90;;;;;;5053683;28;20047;-78
2022/07/23 01:55:27;;;;;;;6.05;4.85;;;12.70;99.90;;;;;;5047947;28;20124;-77
2022/07/23 01:57:52;;;;;;;7.70;5.18;;;12.80;99.90;;;;;;5039976;28;20037;-76
2022/07/23 02:00:18;;;;;;;6.10;5.28;;;12.80;99.90;;;;;;5045547;28;20120;-76
2022/07/23 02:02:44;;;;;;;9.43;6.07;;;12.70;99.90;;;;;;5043119;28;20044;-76
2022/07/23 02:05:10;;;;;;;7.57;5.60;;;12.70;99.90;;;;;;5044116;28;20114;-76
2022/07/23 02:07:35;;;;;;;9.27;5.53;;;12.60;99.90;;;;;;5045380;28;20072;-76
2022/07/23 02:10:01;;;;;;;6.53;5.22;;;12.50;99.90;;;;;;5043248;28;20077;-77
2022/07/23 02:12:26;;;;;;;5.45;4.53;;;12.60;99.90;;;;;;5044254;28;20123;-75
2022/07/23 02:14:52;;;;;;;12.35;6.63;;;12.60;99.90;;;;;;5043378;28;20069;-76
2022/07/23 02:17:18;;;;;;;7.22;5.32;;;12.50;99.90;;;;;;5041828;28;20052;-76
2022/07/23 02:19:43;;;;;;;7.72;4.75;;;12.50;99.90;;;;;;5045041;28;20041;-76
2022/07/23 02:22:09;;;;;;;10.93;5.97;;;12.50;99.90;;;;;;5045021;28;20853;-76
2022/07/23 02:24:34;;;;;;;6.70;5.30;;;12.40;99.90;;;;;;5045573;28;20112;-75
2022/07/23 02:27:00;;;;;;;8.02;5.15;;;12.50;99.90;;;;;;5040275;28;20095;-76
2022/07/23 02:29:26;;;;;;;4.75;4.20;;;12.40;99.90;;;;;;5043687;28;20419;-76
2022/07/23 02:31:51;;;;;;;10.95;6.65;;;12.40;99.90;;;;;;5043436;28;20056;-75
2022/07/23 02:34:17;;;;;;;6.30;4.30;;;12.50;99.90;;;;;;5046209;28;20037;-76
2022/07/23 02:36:43;;;;;;;6.00;4.15;;;12.40;99.90;;;;;;5041647;28;20045;-76
2022/07/23 02:39:08;;;;;;;7.90;4.28;;;12.20;99.90;;;;;;5041993;28;20153;-76
2022/07/23 02:41:34;;;;;;;7.03;4.65;;;12.20;99.90;;;;;;5046158;28;20203;-76
2022/07/23 02:44:00;;;;;;;6.28;4.28;;;12.30;99.90;;;;;;5044502;28;20559;-77
2022/07/23 02:46:25;;;;;;;4.60;4.20;;;12.20;99.90;;;;;;5042668;28;20411;-76
2022/07/23 02:48:51;;;;;;;6.60;4.53;;;12.20;99.90;;;;;;5042633;28;20079;-75
2022/07/23 02:51:16;;;;;;;6.05;3.83;;;12.20;99.90;;;;;;5045144;28;20479;-75
2022/07/23 02:53:42;;;;;;;4.18;3.22;;;12.30;99.90;;;;;;5043048;28;20052;-75
2022/07/23 02:56:08;;;;;;;4.50;3.60;;;12.20;99.90;;;;;;5044598;28;20265;-77
2022/07/23 02:58:34;;;;;;;4.40;3.20;;;12.30;99.90;;;;;;5029148;28;20557;-76
2022/07/23 03:00:59;;;;;;;9.07;3.63;;;12.20;99.90;;;;;;5045782;28;20037;-76
2022/07/23 03:03:25;;;;;;;8.10;3.67;;;12.30;99.90;;;;;;5046852;28;20052;-76
2022/07/23 03:05:51;;;;;;;3.20;2.83;;;12.20;99.90;;;;;;5046724;28;20048;-76
2022/07/23 03:08:16;;;;;;;2.78;2.50;;;12.10;99.90;;;;;;5043393;28;20045;-76
2022/07/23 03:10:42;;;;;;;6.60;3.85;;;12.10;99.90;;;;;;5048437;28;20040;-76
2022/07/23 03:13:07;;;;;;;6.57;2.92;;;12.20;99.90;;;;;;5046852;28;20037;-76
2022/07/23 03:15:33;;;;;;;4.63;3.88;;;12.10;99.90;;;;;;5045924;28;20044;-75
2022/07/23 03:17:58;;;;;;;4.60;3.63;;;12.10;99.90;;;;;;5045478;28;20126;-75
2022/07/23 03:20:24;;;;;;;3.92;3.17;;;12.20;99.90;;;;;;5048648;28;20361;-75
2022/07/23 03:22:50;;;;;;;7.88;5.00;;;12.10;99.90;;;;;;5046522;28;20048;-74
2022/07/23 03:25:15;;;;;;;4.53;3.42;;;12.20;99.90;;;;;;5045916;28;20124;-76
2022/07/23 03:27:41;;;;;;;6.53;4.10;;;12.00;99.90;;;;;;5047687;28;20041;-76
2022/07/23 03:30:07;;;;;;;5.70;3.83;;;12.10;99.90;;;;;;5046891;28;20045;-76
2022/07/23 03:32:33;;;;;;;4.50;4.10;;;12.10;99.90;;;;;;5048057;28;20041;-76
2022/07/23 03:34:59;;;;;;;5.32;3.95;;;12.00;99.90;;;;;;5045972;28;20041;-76
2022/07/23 03:37:26;;;;;;;5.05;3.60;;;12.00;99.90;;;;;;5044431;28;20029;-76
2022/07/23 03:39:51;;;;;;;5.53;3.22;;;12.00;99.90;;;;;;5048967;28;20458;-76
2022/07/23 03:42:17;;;;;;;4.88;4.10;;;12.00;99.90;;;;;;5049182;28;20136;-76
2022/07/23 03:44:43;;;;;;;4.55;3.22;;;12.00;99.90;;;;;;5047747;28;20103;-76
2022/07/23 03:47:08;;;;;;;6.60;3.65;;;12.00;99.90;;;;;;5046451;28;20037;-76
2022/07/23 03:49:34;;;;;;;6.32;3.90;;;12.00;99.90;;;;;;5039405;28;20071;-76
2022/07/23 03:52:00;;;;;;;5.38;4.55;;;12.00;99.90;;;;;;5047205;28;20372;-76
2022/07/23 03:54:25;;;;;;;5.53;4.28;;;12.00;99.90;;;;;;5048458;28;20500;-76
2022/07/23 03:56:51;;;;;;;5.53;3.95;;;12.10;99.90;;;;;;5029408;28;20089;-76
2022/07/23 03:59:17;;;;;;;4.18;3.75;;;12.10;99.90;;;;;;5048303;28;20475;-76
2022/07/23 04:01:42;;;;;;;6.07;4.50;;;12.10;99.90;;;;;;5046099;28;20037;-76
2022/07/23 04:04:08;;;;;;;4.50;3.45;;;12.00;99.90;;;;;;5045959;28;20518;-77
2022/07/23 04:06:35;;;;;;;9.07;4.82;;;12.00;99.90;;;;;;5043579;28;20040;-76
2022/07/23 04:09:00;;;;;;;5.28;3.92;;;12.10;99.90;;;;;;5044969;28;20041;-76
2022/07/23 04:11:26;;;;;;;9.02;3.85;;;12.00;99.90;;;;;;5047019;28;20049;-76
2022/07/23 04:13:52;;;;;;;6.40;3.38;;;12.10;99.90;;;;;;5043702;28;20044;-75
2022/07/23 04:16:17;;;;;;;5.25;3.70;;;12.10;99.90;;;;;;5044749;28;20033;-76
2022/07/23 04:18:43;;;;;;;3.92;3.58;;;12.20;99.90;;;;;;5046166;28;20685;-75
2022/07/23 04:21:08;;;;;;;6.13;3.80;;;12.20;99.90;;;;;;5046596;28;20068;-75
2022/07/23 04:23:34;;;;;;;3.90;3.20;;;12.30;99.90;;;;;;5045297;28;20041;-76
2022/07/23 04:26:00;;;;;;;9.68;5.95;;;12.20;99.90;;;;;;5046798;28;20049;-75
2022/07/23 04:28:26;;;;;;;4.80;3.40;;;12.20;99.90;;;;;;5045740;28;20454;-76
2022/07/23 04:30:51;;;;;;;4.55;3.72;;;12.60;99.90;;;;;;5046378;28;20443;-75
2022/07/23 04:33:17;;;;;;;5.38;3.47;;;12.40;99.90;;;;;;5045596;28;20041;-75
2022/07/23 04:35:43;;;;;;;4.95;2.85;;;12.50;99.90;;;;;;5045629;28;20033;-76
2022/07/23 04:38:08;;;;;;;5.57;3.95;;;12.40;99.90;;;;;;5041971;28;20466;-75
2022/07/23 04:40:34;;;;;;;6.18;4.13;;;12.30;99.90;;;;;;5046043;28;20036;-75
2022/07/23 04:43:00;;;;;;;13.63;4.93;;;12.50;99.90;;;;;;5044898;28;20045;-75
2022/07/23 04:45:26;;;;;;;5.30;3.80;;;12.40;99.90;;;;;;5042272;28;20056;-75
2022/07/23 04:47:51;;;;;;;7.53;4.60;;;12.40;99.90;;;;;;5046330;28;20044;-77
2022/07/23 04:50:21;;;;;;;5.93;3.70;;;12.50;99.90;;;;;;5047226;28;20048;-76
2022/07/23 04:52:47;;;;;;;5.38;4.50;;;12.50;99.90;;;;;;5047953;28;20053;-76
2022/07/23 04:55:14;;;;;;;9.48;5.35;;;12.50;99.90;;;;;;5047509;28;20112;-75
2022/07/23 04:57:39;;;;;;;6.95;5.03;;;12.60;99.90;;;;;;5042090;28;20041;-75
2022/07/23 05:00:06;;;;;;;7.53;5.15;;;12.70;99.90;;;;;;5046815;28;20033;-75
2022/07/23 05:02:32;;;;;;;7.75;5.03;;;12.70;99.90;;;;;;5044295;28;20041;-75
2022/07/23 05:04:57;;;;;;;5.00;4.50;;;12.70;99.90;;;;;;5057853;28;20052;-75
2022/07/23 05:07:23;;;;;;;10.63;5.65;;;12.80;99.90;;;;;;5043333;28;20036;-76
2022/07/23 05:09:49;;;;;;;6.85;5.20;;;12.90;99.90;;;;;;5043660;28;20411;-77
2022/07/23 05:12:15;;;;;;;8.20;5.18;;;13.00;99.90;;;;;;5047228;28;20049;-77
2022/07/23 05:14:41;;;;;;;6.90;4.85;;;13.00;99.90;;;;;;5046418;28;20041;-76
2022/07/23 05:17:07;;;;;;;6.45;5.43;;;13.10;99.90;;;;;;5044392;28;20064;-76
2022/07/23 05:19:34;;;;;;;6.03;5.05;;;13.10;99.90;;;;;;5041743;28;20045;-77
2022/07/23 05:22:00;;;;;;;8.55;4.38;;;13.20;99.90;;;;;;5043775;28;20052;-76
2022/07/23 05:24:26;;;;;;;12.70;6.60;;;13.20;99.90;;;;;;5028949;28;20051;-75
2022/07/23 05:26:52;;;;;;;9.75;5.18;;;13.30;99.90;;;;;;5043046;28;20033;-76
2022/07/23 05:29:18;;;;;;;7.20;4.82;;;13.40;99.90;;;;;;5044179;28;20083;-75
2022/07/23 05:31:43;;;;;;;12.65;5.15;;;13.40;99.90;;;;;;5045598;28;20048;-76
2022/07/23 05:34:09;;;;;;;7.28;5.35;;;13.60;99.90;;;;;;5043052;28;20033;-76
2022/07/23 05:36:35;;;;;;;5.97;4.93;;;13.70;99.90;;;;;;5036356;28;20495;-75
2022/07/23 05:39:01;;;;;;;10.20;4.65;;;13.60;99.90;;;;;;5044041;28;20044;-76
2022/07/23 05:41:26;;;;;;;6.35;4.80;;;13.80;99.90;;;;;;5045162;28;20037;-75
2022/07/23 05:43:52;;;;;;;7.97;4.35;;;13.90;99.90;;;;;;5043558;28;20281;-77
2022/07/23 05:46:17;;;;;;;6.97;4.38;;;13.90;99.90;;;;;;5044415;28;20303;-77
2022/07/23 05:48:45;;;;;;;4.93;3.40;;;14.00;99.90;;;;;;5044565;28;20416;-77
2022/07/23 05:51:11;;;;;;;6.70;4.82;;;14.00;99.90;;;;;;5044610;28;20099;-74
2022/07/23 05:53:38;;;;;;;5.57;3.63;;;14.10;99.90;;;;;;5045300;28;20052;-77
2022/07/23 05:56:04;;;;;;;6.13;3.72;;;14.30;99.90;;;;;;5040146;28;20449;-77
2022/07/23 05:58:29;;;;;;;4.95;4.45;;;14.40;99.90;;;;;;5044089;28;20045;-77
2022/07/23 06:00:55;;;;;;;7.60;3.83;;;14.40;99.90;;;;;;5046196;28;20063;-77
2022/07/23 06:03:20;;;;;;;5.95;3.05;;;14.50;99.90;;;;;;5043481;28;20099;-74
2022/07/23 06:05:46;;;;;;;5.82;2.22;;;14.50;99.90;;;;;;5042337;28;20045;-76
2022/07/23 06:08:12;;;;;;;5.50;2.65;;;14.70;99.90;;;;;;5041309;28;20041;-76
2022/07/23 06:10:37;;;;;;;2.03;1.83;;;14.60;99.90;;;;;;5046379;28;20049;-76
2022/07/23 06:13:03;;;;;;;2.47;1.67;;;14.80;99.90;;;;;;5046035;28;20049;-80
2022/07/23 06:15:30;;;;;;;4.35;2.08;;;14.90;99.90;;;;;;5042462;28;20029;-77
2022/07/23 06:17:55;;;;;;;0.98;0.93;;;15.00;99.90;;;;;;5045895;28;20102;-75
2022/07/23 06:20:21;;;;;;;6.43;1.00;;;15.00;99.90;;;;;;5033506;28;20447;-76
2022/07/23 06:22:47;;;;;;;7.43;1.65;;;15.10;99.90;;;;;;5028914;28;20041;-75
2022/07/23 06:25:12;;;;;;;3.15;0.98;;;15.20;99.90;;;;;;5045396;28;20040;-76
2022/07/23 06:27:38;;;;;;;7.10;1.65;;;15.20;99.90;;;;;;5042383;28;20297;-75
2022/07/23 06:30:05;;;;;;;2.22;0.80;;;15.30;99.90;;;;;;5044814;28;20126;-76
2022/07/23 06:32:31;;;;;;;3.38;1.02;;;15.30;99.90;;;;;;5049434;28;20045;-75
2022/07/23 06:34:56;;;;;;;3.97;0.88;;;15.40;99.90;;;;;;5046397;28;20487;-75
2022/07/23 06:37:22;;;;;;;3.13;0.55;;;15.50;99.90;;;;;;5046751;28;20040;-75
2022/07/23 06:39:48;;;;;;;2.38;1.52;;;15.60;99.90;;;;;;5047757;28;20044;-75
2022/07/23 06:42:14;;;;;;;1.85;0.95;;;15.60;99.90;;;;;;5047368;28;20063;-76
2022/07/23 06:44:40;;;;;;;0.90;0.65;;;15.70;99.90;;;;;;5047790;28;20076;-77
2022/07/23 06:47:06;;;;;;;4.32;0.80;;;15.80;99.90;;;;;;5045201;28;20083;-76
2022/07/23 06:49:31;;;;;;;1.42;0.80;;;15.80;99.90;;;;;;5047601;28;20091;-76
2022/07/23 06:51:57;;;;;;;1.80;0.63;;;15.80;99.90;;;;;;5048435;28;20049;-75
2022/07/23 06:54:23;;;;;;;2.55;0.45;;;15.80;99.90;;;;;;5043749;28;20052;-76
2022/07/23 06:56:48;;;;;;;0.70;0.32;;;15.90;99.90;;;;;;5048694;28;20052;-74
2022/07/23 06:59:14;;;;;;;2.28;0.65;;;15.90;99.90;;;;;;5048788;28;20087;-75
2022/07/23 07:01:40;;;;;;;2.88;0.70;;;16.10;99.90;;;;;;5047936;28;20073;-76
2022/07/23 07:04:05;;;;;;;1.80;0.70;;;16.20;99.90;;;;;;5043481;28;20087;-76
2022/07/23 07:06:31;;;;;;;0.65;0.38;;;16.60;99.90;;;;;;5048192;28;20044;-78
2022/07/23 07:08:57;;;;;;;2.97;0.40;;;16.70;99.90;;;;;;5046195;28;20134;-76
2022/07/23 07:11:23;;;;;;;1.35;0.30;;;17.30;99.90;;;;;;5046137;28;20049;-76
2022/07/23 07:13:49;;;;;;;0.65;0.47;;;17.90;99.90;;;;;;5046157;28;20049;-76
2022/07/23 07:16:15;;;;;;;1.50;0.32;;;18.50;99.90;;;;;;5046868;28;20064;-76
2022/07/23 07:18:40;;;;;;;1.73;0.30;;;19.60;99.90;;;;;;5048554;28;20522;-76
2022/07/23 07:21:06;;;;;;;0.60;0.38;;;20.80;99.90;;;;;;5047994;28;20037;-76
2022/07/23 07:23:32;;;;;;;2.85;0.43;;;21.00;99.90;;;;;;5045654;28;20037;-74
2022/07/23 07:25:57;;;;;;;0.55;0.20;;;21.70;99.90;;;;;;5047303;28;20056;-76
2022/07/23 07:28:23;;;;;;;1.08;0.30;;;21.90;99.90;;;;;;5047569;28;20033;-76
2022/07/23 07:30:49;;;;;;;1.40;0.30;;;22.50;99.90;;;;;;5048221;28;20045;-77
2022/07/23 07:33:14;;;;;;;2.50;0.30;;;22.10;99.90;;;;;;5042474;28;20514;-77
2022/07/23 07:35:40;;;;;;;2.13;0.30;;;23.00;99.90;;;;;;5044646;28;20388;-76
2022/07/23 07:38:06;;;;;;;15.23;0.90;;;21.40;99.90;;;;;;5047454;28;20568;-77
2022/07/23 07:40:31;;;;;;;0.82;0.20;;;20.50;99.90;;;;;;5047906;28;20501;-75
2022/07/23 07:42:57;;;;;;;0.88;0.20;;;20.00;99.90;;;;;;5045031;28;20037;-75
2022/07/23 07:45:24;;;;;;;0.98;0.28;;;19.70;99.90;;;;;;5046429;28;20391;-76
2022/07/23 07:47:50;;;;;;;0.63;0.13;;;19.70;99.90;;;;;;5046014;28;20056;-76
2022/07/23 07:50:16;;;;;;;0.80;0.45;;;19.40;99.90;;;;;;5045206;28;20387;-77
2022/07/23 07:52:42;;;;;;;0.22;0.20;;;19.30;99.90;;;;;;5048492;28;20045;-77
2022/07/23 07:55:09;;;;;;;1.02;0.80;;;19.10;99.90;;;;;;5047069;28;20115;-78
2022/07/23 07:57:37;;;;;;;1.60;0.43;;;19.00;99.90;;;;;;5043885;28;20076;-77
2022/07/23 08:00:05;;;;;;;1.58;0.80;;;18.80;99.90;;;;;;5028774;28;20047;-78
2022/07/23 08:02:49;;;;;;;1.88;0.20;;;18.50;99.90;;;;;;5046392;28;20045;-78
2022/07/23 08:05:20;;;;;;;0.93;0.20;;;18.50;99.90;;;;;;5046664;28;20045;-78
2022/07/23 08:07:45;;;;;;;1.50;0.30;;;18.60;99.90;;;;;;5044035;28;20130;-81
2022/07/23 08:10:11;;;;;;;0.80;0.20;;;18.40;99.90;;;;;;5062080;28;20037;-77
2022/07/23 08:12:41;;;;;;;1.83;0.43;;;18.40;99.90;;;;;;5039744;28;20040;-76
2022/07/23 08:15:07;;;;;;;;;;;18.30;99.90;;;;;;5044678;28;20041;-77
2022/07/23 08:17:33;;;;;;;2.35;0.35;;;18.40;99.90;;;;;;5045057;28;19943;-76
2022/07/23 08:19:58;;;;;;;1.85;0.20;;;18.20;99.90;;;;;;5038934;28;20040;-77
2022/07/23 08:22:24;;;;;;;0.90;0.25;;;18.30;99.90;;;;;;5045145;28;20048;-77
2022/07/23 08:24:50;;;;;;;0.47;0.30;;;18.30;99.90;;;;;;5041814;28;20044;-78
2022/07/23 08:27:15;;;;;;;2.13;0.45;;;18.20;99.90;;;;;;5043036;28;20471;-78
2022/07/23 08:29:41;;;;;;;1.17;0.20;;;18.30;99.90;;;;;;5038774;28;20120;-75
2022/07/23 08:32:06;;;;;;;5.15;0.90;;;18.30;99.90;;;;;;5042865;28;20043;-78
2022/07/23 08:34:32;;;;;;;0.55;0.30;;;18.30;99.90;;;;;;5045815;28;20399;-76
2022/07/23 08:36:58;;;;;;;1.20;0.30;;;18.30;99.90;;;;;;5047519;28;20044;-77
2022/07/23 08:39:23;;;;;;;1.10;0.38;;;18.30;99.90;;;;;;5045455;28;20037;-78
2022/07/23 08:41:50;;;;;;;1.30;0.45;;;18.30;99.90;;;;;;5045012;28;20055;-75
2022/07/23 08:44:16;;;;;;;0.88;0.40;;;18.20;99.90;;;;;;5035257;28;20033;-77
2022/07/23 08:46:44;;;;;;;0.30;0.30;;;18.30;99.90;;;;;;5046290;28;20053;-78
2022/07/23 08:49:10;;;;;;;2.97;0.55;;;18.20;99.90;;;;;;5042158;28;20037;-77
2022/07/23 08:51:35;;;;;;;0.88;0.40;;;18.20;99.90;;;;;;5045893;28;20041;-78
2022/07/23 08:54:01;;;;;;;1.73;0.85;;;18.30;99.90;;;;;;5046655;28;20037;-79
2022/07/23 08:56:27;;;;;;;1.50;0.45;;;18.30;99.90;;;;;;5029133;28;20057;-76
2022/07/23 08:58:56;;;;;;;0.60;0.30;;;18.20;99.90;;;;;;5045301;28;20036;-76
2022/07/23 09:01:21;;;;;;;0.40;0.28;;;18.30;99.90;;;;;;5046114;28;20404;-75
2022/07/23 09:03:47;;;;;;;1.13;0.52;;;18.40;99.90;;;;;;5044417;28;20037;-75
2022/07/23 09:06:13;;;;;;;1.48;0.40;;;18.50;99.90;;;;;;5044986;28;20042;-76
2022/07/23 09:08:43;;;;;;;2.33;0.50;;;18.50;99.90;;;;;;5045395;28;20049;-78
2022/07/23 09:11:11;;;;;;;2.28;0.70;;;18.70;99.90;;;;;;5045907;28;20448;-78
2022/07/23 09:13:54;;;;;;;4.20;1.05;;;18.80;99.90;;;;;;5044097;28;20120;-79
2022/07/23 09:16:23;;;;;;;3.25;0.40;;;18.80;99.90;;;;;;5045114;28;20446;-78
2022/07/23 09:18:59;;;;;;;2.15;0.45;;;18.80;99.90;;;;;;5043448;28;20479;-76
2022/07/23 09:21:31;;;;;;;0.68;0.40;;;18.80;99.90;;;;;;5044877;28;20052;-81
2022/07/23 09:24:02;;;;;;;1.35;0.32;;;19.00;99.90;;;;;;5045224;28;20052;-79
2022/07/23 09:26:31;;;;;;;2.80;1.00;;;19.10;99.90;;;;;;5045055;28;20037;-79
2022/07/23 09:29:01;;;;;;;3.13;0.55;;;19.00;99.90;;;;;;5044559;28;20114;-78
2022/07/23 09:31:34;;;;;;;2.03;0.30;;;19.00;99.90;;;;;;5044845;28;20499;-79
2022/07/23 09:34:22;;;;;;;3.05;0.73;;;19.20;99.90;;;;;;5043893;28;20045;-80
2022/07/23 09:36:50;;;;;;;2.50;0.70;;;19.30;99.90;;;;;;5046278;28;20044;-80
2022/07/23 09:39:24;;;;;;;8.40;0.70;;;19.20;99.90;;;;;;5045873;28;20094;-76
2022/07/23 09:41:49;;;;;;;0.30;0.20;;;19.10;99.90;;;;;;5045377;28;20445;-76
2022/07/23 09:44:20;;;;;;;3.40;0.28;;;19.40;99.90;;;;;;5045037;28;20044;-76
2022/07/23 09:46:47;;;;;;;2.97;0.60;;;19.60;99.90;;;;;;5045122;28;20057;-77
2022/07/23 09:49:23;;;;;;;3.45;0.80;;;19.40;99.90;;;;;;5042930;28;20052;-76
2022/07/23 09:52:01;;;;;;;1.52;0.63;;;19.40;99.90;;;;;;5046226;28;20101;-73
2022/07/23 09:54:38;;;;;;;1.67;0.60;;;19.60;99.90;;;;;;5044320;28;20041;-75
2022/07/23 09:57:14;;;;;;;0.55;0.52;;;19.10;99.90;;;;;;5045453;28;20102;-76
2022/07/23 09:59:42;;;;;;;6.47;1.30;;;19.10;99.90;;;;;;5027029;28;20052;-74
2022/07/23 10:02:10;;;;;;;1.23;0.52;;;19.00;99.90;;;;;;5041100;28;20051;-80
2022/07/23 10:04:36;;;;;;;4.38;0.73;;;18.80;99.90;;;;;;5044068;28;20075;-79
2022/07/23 10:07:04;;;;;;;4.43;1.60;;;18.90;99.90;;;;;;5043763;28;20204;-78
2022/07/23 10:09:33;;;;;;;6.82;1.02;;;19.00;99.90;;;;;;5027117;28;20049;-79
2022/07/23 10:12:05;;;;;;;0.82;0.43;;;18.90;99.90;;;;;;5037552;28;20483;-79
2022/07/23 10:14:33;;;;;;;2.38;0.47;;;18.90;99.90;;;;;;5062030;28;20037;-78
2022/07/23 10:17:00;;;;;;;3.30;0.57;;;19.00;99.90;;;;;;5057650;28;20045;-80
2022/07/23 10:19:26;;;;;;;2.70;1.15;;;18.90;99.90;;;;;;5047509;28;20048;-79
2022/07/23 10:21:56;;;;;;;3.03;0.88;;;18.90;99.90;;;;;;5043819;28;20053;-77
2022/07/23 10:24:46;;;;;;;2.03;0.93;;;19.10;99.90;;;;;;5045308;28;20055;-78
2022/07/23 10:27:37;;;;;;;2.75;0.70;;;19.40;99.90;;;;;;5044373;28;20292;-79
2022/07/23 10:30:26;;;;;;;;;;;19.30;99.90;;;;;;5027205;28;20049;-78
2022/07/23 10:33:16;;;;;;;2.70;0.88;;;19.30;99.90;;;;;;5016530;28;19920;-75
2022/07/23 10:35:55;;;;;;;;;;;19.40;99.90;;;;;;5045699;28;20045;-75
2022/07/23 10:38:25;;;;;;;2.30;1.58;;;19.40;99.90;;;;;;5045275;28;19921;-76
2022/07/23 10:40:59;;;;;;;3.08;0.68;;;19.20;99.90;;;;;;5042039;28;20093;-76
2022/07/23 10:43:25;;;;;;;1.13;0.60;;;19.20;99.90;;;;;;5043661;28;20082;-75
2022/07/23 10:45:51;;;;;;;0.68;0.57;;;19.20;99.90;;;;;;5044175;28;20060;-75
2022/07/23 10:48:27;;;;;;;3.85;0.93;;;19.40;99.90;;;;;;5043342;28;20106;-76
2022/07/23 10:51:10;;;;;;;2.75;0.70;;;19.50;99.90;;;;;;5041495;28;20102;-76
2022/07/23 10:53:51;;;;;;;1.98;0.70;;;19.50;99.90;;;;;;5044353;28;20245;-76
2022/07/23 10:56:37;;;;;;;0.88;0.60;;;20.00;99.90;;;;;;5044521;28;20491;-74
2022/07/23 10:59:05;;;;;;;0.75;0.75;;;20.20;99.90;;;;;;5043706;28;20500;-75
2022/07/23 11:01:38;;;;;;;1.67;0.93;;;19.80;99.90;;;;;;5043589;28;20086;-75
2022/07/23 11:04:07;;;;;;;3.15;0.70;;;19.90;99.90;;;;;;5043307;28;20045;-76
2022/07/23 11:06:48;;;;;;;1.83;0.50;;;20.00;99.90;;;;;;5043374;28;20068;-75
2022/07/23 11:09:28;;;;;;;2.28;0.93;;;19.90;99.90;;;;;;5043883;28;20045;-75
2022/07/23 11:12:12;;;;;;;2.60;0.80;;;19.60;99.90;;;;;;5023868;28;20515;-75
2022/07/23 11:14:59;;;;;;;1.73;1.35;;;19.60;99.90;;;;;;5006135;28;20065;-75
2022/07/23 11:17:26;;;;;;;3.38;0.77;;;19.90;99.90;;;;;;5006427;28;20512;-76
2022/07/23 11:20:11;;;;;;;3.17;0.93;;;20.10;99.90;;;;;;5034236;28;20037;-75
2022/07/23 11:22:46;;;;;;;4.22;1.48;;;20.30;99.90;;;;;;5045353;28;20557;-76
2022/07/23 11:25:14;;;;;;;1.98;1.20;;;20.30;99.90;;;;;;5046195;28;20043;-75
2022/07/23 11:27:44;;;;;;;1.80;1.00;;;20.50;99.90;;;;;;5047649;28;20045;-77
2022/07/23 11:30:31;;;;;;;2.35;1.13;;;20.30;99.90;;;;;;5056364;28;20048;-76
2022/07/23 11:33:09;;;;;;;1.88;0.63;;;20.10;99.90;;;;;;5066130;28;20056;-76
2022/07/23 11:35:36;;;;;;;2.60;1.02;;;20.20;99.90;;;;;;5058103;28;20040;-76
2022/07/23 11:38:19;;;;;;;1.70;0.95;;;20.10;99.90;;;;;;5047456;28;20053;-75
2022/07/23 11:40:48;;;;;;;1.50;0.82;;;20.00;99.90;;;;;;5046100;28;20098;-76
2022/07/23 11:43:14;;;;;;;1.73;0.68;;;20.10;99.90;;;;;;5047946;28;20056;-76
2022/07/23 11:45:44;;;;;;;2.20;1.00;;;19.90;99.90;;;;;;5046105;28;20064;-76
2022/07/23 11:48:20;;;;;;;3.97;1.23;;;20.10;99.90;;;;;;5047328;28;20510;-76
2022/07/23 11:50:46;;;;;;;1.23;1.13;;;20.50;99.90;;;;;;5045465;28;20052;-76
2022/07/23 11:53:12;;;;;;;3.28;1.10;;;20.70;99.90;;;;;;5045224;28;20120;-76
2022/07/23 11:55:38;;;;;;;1.55;0.90;;;20.80;99.90;;;;;;5046864;28;20132;-76
2022/07/23 11:58:03;;;;;;;3.83;0.95;;;20.80;99.90;;;;;;5047156;28;20037;-77
2022/07/23 12:00:30;;;;;;;1.35;0.90;;;20.90;99.90;;;;;;5046256;28;20081;-78
2022/07/23 12:03:01;;;;;;;2.80;1.00;;;21.20;99.90;;;;;;5046802;28;20084;-76
2022/07/23 12:05:32;;;;;;;2.78;1.00;;;21.00;99.90;;;;;;5045928;28;20350;-77
2022/07/23 12:08:00;;;;;;;1.30;0.93;;;20.70;99.90;;;;;;5045282;28;20416;-77
2022/07/23 12:10:27;;;;;;;2.55;1.10;;;20.40;99.90;;;;;;5044326;28;20033;-76
2022/07/23 12:12:55;;;;;;;1.63;0.98;;;20.40;99.90;;;;;;5046437;28;20041;-74
2022/07/23 12:15:30;;;;;;;5.85;1.48;;;20.90;99.90;;;;;;5046822;28;20036;-75
2022/07/23 12:17:56;;;;;;;3.40;2.35;;;21.10;99.90;;;;;;5045989;28;20052;-75
2022/07/23 12:20:26;;;;;;;2.53;1.92;;;21.20;99.90;;;;;;5045964;28;20033;-76
2022/07/23 12:22:56;;;;;;;3.38;1.67;;;21.20;99.90;;;;;;5044826;28;20068;-77
2022/07/23 12:25:24;;;;;;;2.42;0.90;;;21.20;99.90;;;;;;5046867;28;20037;-77
2022/07/23 12:28:06;;;;;;;2.08;0.73;;;21.50;99.90;;;;;;5045825;28;20045;-76
2022/07/23 12:30:41;;;;;;;1.20;0.95;;;21.10;99.90;;;;;;5026218;28;20472;-77
2022/07/23 12:33:08;;;;;;;3.97;0.80;;;21.10;99.90;;;;;;5026746;28;20037;-74
2022/07/23 12:35:41;;;;;;;1.08;1.00;;;21.10;99.90;;;;;;5026892;28;20045;-77
2022/07/23 12:38:12;;;;;;;1.80;1.17;;;21.30;99.90;;;;;;5032826;28;20044;-77
2022/07/23 12:40:45;;;;;;;2.30;1.05;;;21.30;99.90;;;;;;5046707;28;20961;-75
2022/07/23 12:43:19;;;;;;;3.70;1.25;;;21.30;99.90;;;;;;5046001;28;20048;-76
2022/07/23 12:45:53;;;;;;;5.30;1.55;;;21.30;99.90;;;;;;5046780;28;20497;-76
2022/07/23 12:48:31;;;;;;;2.22;1.15;;;21.70;99.90;;;;;;5044589;28;20037;-77
2022/07/23 12:51:01;;;;;;;3.47;1.00;;;21.70;99.90;;;;;;5045674;28;20048;-77